sensor_id;sensor_type;location;lat;lon;timestamp;P1;durP1;ratioP1;P2;durP2;ratioP2
65358;SDS011;52491;45.900;6.346;2023-04-06T00:01:36;1.88;;;1.67;;
65358;SDS011;52491;45.900;6.346;2023-04-06T00:04:01;2.47;;;1.70;;
65358;SDS011;52491;45.900;6.346;2023-04-06T00:06:27;2.13;;;1.70;;
65358;SDS011;52491;45.900;6.346;2023-04-06T00:08:53;1.65;;;1.55;;
65358;SDS011;52491;45.900;6.346;2023-04-06T00:11:19;1.85;;;1.50;;
65358;SDS011;52491;45.900;6.346;2023-04-06T00:13:45;2.92;;;1.90;;
65358;SDS011;52491;45.900;6.346;2023-04-06T00:16:10;2.80;;;1.50;;
65358;SDS011;52491;45.900;6.346;2023-04-06T00:18:36;1.90;;;1.50;;
65358;SDS011;52491;45.900;6.346;2023-04-06T00:21:02;2.80;;;1.40;;
65358;SDS011;52491;45.900;6.346;2023-04-06T00:23:28;2.38;;;1.67;;
65358;SDS011;52491;45.900;6.346;2023-04-06T00:25:54;1.67;;;1.08;;
65358;SDS011;52491;45.900;6.346;2023-04-06T00:28:20;2.97;;;1.77;;
65358;SDS011;52491;45.900;6.346;2023-04-06T00:30:50;2.05;;;1.42;;
65358;SDS011;52491;45.900;6.346;2023-04-06T00:33:18;2.85;;;1.45;;
65358;SDS011;52491;45.900;6.346;2023-04-06T00:35:47;1.65;;;1.52;;
65358;SDS011;52491;45.900;6.346;2023-04-06T00:38:13;2.92;;;1.20;;
65358;SDS011;52491;45.900;6.346;2023-04-06T00:40:40;1.23;;;1.13;;
65358;SDS011;52491;45.900;6.346;2023-04-06T00:43:06;2.10;;;1.35;;
65358;SDS011;52491;45.900;6.346;2023-04-06T00:45:32;2.53;;;1.38;;
65358;SDS011;52491;45.900;6.346;2023-04-06T00:47:58;3.13;;;1.63;;
65358;SDS011;52491;45.900;6.346;2023-04-06T00:50:24;1.88;;;1.27;;
65358;SDS011;52491;45.900;6.346;2023-04-06T00:52:50;1.92;;;1.30;;
65358;SDS011;52491;45.900;6.346;2023-04-06T00:55:15;1.83;;;1.30;;
65358;SDS011;52491;45.900;6.346;2023-04-06T00:57:41;1.42;;;1.30;;
65358;SDS011;52491;45.900;6.346;2023-04-06T01:00:07;2.10;;;1.15;;
65358;SDS011;52491;45.900;6.346;2023-04-06T01:02:33;2.33;;;1.45;;
65358;SDS011;52491;45.900;6.346;2023-04-06T01:04:59;1.55;;;1.27;;
65358;SDS011;52491;45.900;6.346;2023-04-06T01:07:24;2.38;;;1.35;;
65358;SDS011;52491;45.900;6.346;2023-04-06T01:09:50;2.58;;;1.67;;
65358;SDS011;52491;45.900;6.346;2023-04-06T01:12:18;1.42;;;1.20;;
65358;SDS011;52491;45.900;6.346;2023-04-06T01:14:44;2.75;;;1.58;;
65358;SDS011;52491;45.900;6.346;2023-04-06T01:17:10;1.40;;;1.10;;
65358;SDS011;52491;45.900;6.346;2023-04-06T01:19:36;1.65;;;1.00;;
65358;SDS011;52491;45.900;6.346;2023-04-06T01:22:01;1.33;;;1.13;;
65358;SDS011;52491;45.900;6.346;2023-04-06T01:24:27;1.45;;;0.90;;
65358;SDS011;52491;45.900;6.346;2023-04-06T01:26:53;1.55;;;1.10;;
65358;SDS011;52491;45.900;6.346;2023-04-06T01:29:18;1.27;;;1.17;;
65358;SDS011;52491;45.900;6.346;2023-04-06T01:31:44;1.40;;;1.20;;
65358;SDS011;52491;45.900;6.346;2023-04-06T01:34:10;1.58;;;1.48;;
65358;SDS011;52491;45.900;6.346;2023-04-06T01:36:35;1.17;;;1.05;;
65358;SDS011;52491;45.900;6.346;2023-04-06T01:39:01;2.10;;;1.30;;
65358;SDS011;52491;45.900;6.346;2023-04-06T01:41:27;1.10;;;1.00;;
65358;SDS011;52491;45.900;6.346;2023-04-06T01:43:52;1.65;;;1.23;;
65358;SDS011;52491;45.900;6.346;2023-04-06T01:46:19;3.97;;;1.20;;
65358;SDS011;52491;45.900;6.346;2023-04-06T01:48:45;1.13;;;0.80;;
65358;SDS011;52491;45.900;6.346;2023-04-06T01:51:11;1.33;;;1.13;;
65358;SDS011;52491;45.900;6.346;2023-04-06T01:53:36;1.40;;;1.30;;
65358;SDS011;52491;45.900;6.346;2023-04-06T01:56:02;2.42;;;1.05;;
65358;SDS011;52491;45.900;6.346;2023-04-06T01:58:28;1.40;;;1.10;;
65358;SDS011;52491;45.900;6.346;2023-04-06T02:00:53;1.27;;;0.98;;
65358;SDS011;52491;45.900;6.346;2023-04-06T02:03:19;2.00;;;1.60;;
65358;SDS011;52491;45.900;6.346;2023-04-06T02:05:45;0.82;;;0.82;;
65358;SDS011;52491;45.900;6.346;2023-04-06T02:08:10;1.48;;;0.90;;
65358;SDS011;52491;45.900;6.346;2023-04-06T02:10:36;1.63;;;1.52;;
65358;SDS011;52491;45.900;6.346;2023-04-06T02:13:01;1.05;;;0.93;;
65358;SDS011;52491;45.900;6.346;2023-04-06T02:15:27;1.10;;;0.95;;
65358;SDS011;52491;45.900;6.346;2023-04-06T02:17:53;1.73;;;1.17;;
65358;SDS011;52491;45.900;6.346;2023-04-06T02:20:19;1.65;;;0.95;;
65358;SDS011;52491;45.900;6.346;2023-04-06T02:22:45;1.05;;;0.95;;
65358;SDS011;52491;45.900;6.346;2023-04-06T02:25:10;0.82;;;0.82;;
65358;SDS011;52491;45.900;6.346;2023-04-06T02:27:36;1.42;;;1.02;;
65358;SDS011;52491;45.900;6.346;2023-04-06T02:30:02;1.25;;;0.90;;
65358;SDS011;52491;45.900;6.346;2023-04-06T02:32:28;1.17;;;1.08;;
65358;SDS011;52491;45.900;6.346;2023-04-06T02:34:54;1.13;;;0.95;;
65358;SDS011;52491;45.900;6.346;2023-04-06T02:37:20;2.08;;;0.98;;
65358;SDS011;52491;45.900;6.346;2023-04-06T02:39:46;1.17;;;1.02;;
65358;SDS011;52491;45.900;6.346;2023-04-06T02:42:12;1.38;;;1.00;;
65358;SDS011;52491;45.900;6.346;2023-04-06T02:44:37;1.10;;;0.82;;
65358;SDS011;52491;45.900;6.346;2023-04-06T02:47:03;1.35;;;1.05;;
65358;SDS011;52491;45.900;6.346;2023-04-06T02:49:28;1.77;;;1.05;;
65358;SDS011;52491;45.900;6.346;2023-04-06T02:51:54;1.55;;;1.27;;
65358;SDS011;52491;45.900;6.346;2023-04-06T02:54:19;1.38;;;1.00;;
65358;SDS011;52491;45.900;6.346;2023-04-06T02:56:45;1.55;;;1.10;;
65358;SDS011;52491;45.900;6.346;2023-04-06T02:59:11;1.10;;;0.93;;
65358;SDS011;52491;45.900;6.346;2023-04-06T03:01:36;1.08;;;0.90;;
65358;SDS011;52491;45.900;6.346;2023-04-06T03:04:02;1.55;;;1.13;;
65358;SDS011;52491;45.900;6.346;2023-04-06T03:06:28;1.33;;;0.85;;
65358;SDS011;52491;45.900;6.346;2023-04-06T03:08:54;0.90;;;0.80;;
65358;SDS011;52491;45.900;6.346;2023-04-06T03:11:19;1.10;;;1.00;;
65358;SDS011;52491;45.900;6.346;2023-04-06T03:13:45;1.73;;;0.80;;
65358;SDS011;52491;45.900;6.346;2023-04-06T03:16:11;0.98;;;0.82;;
65358;SDS011;52491;45.900;6.346;2023-04-06T03:18:36;1.23;;;1.13;;
65358;SDS011;52491;45.900;6.346;2023-04-06T03:21:02;1.30;;;0.95;;
65358;SDS011;52491;45.900;6.346;2023-04-06T03:23:28;0.95;;;0.80;;
65358;SDS011;52491;45.900;6.346;2023-04-06T03:25:53;5.80;;;1.73;;
65358;SDS011;52491;45.900;6.346;2023-04-06T03:28:19;1.63;;;1.10;;
65358;SDS011;52491;45.900;6.346;2023-04-06T03:30:45;1.35;;;1.20;;
65358;SDS011;52491;45.900;6.346;2023-04-06T03:33:11;0.98;;;0.88;;
65358;SDS011;52491;45.900;6.346;2023-04-06T03:35:36;1.63;;;0.93;;
65358;SDS011;52491;45.900;6.346;2023-04-06T03:38:03;1.50;;;1.35;;
65358;SDS011;52491;45.900;6.346;2023-04-06T03:40:29;1.20;;;0.80;;
65358;SDS011;52491;45.900;6.346;2023-04-06T03:42:56;1.95;;;1.23;;
65358;SDS011;52491;45.900;6.346;2023-04-06T03:45:22;1.80;;;1.10;;
65358;SDS011;52491;45.900;6.346;2023-04-06T03:47:47;2.08;;;1.35;;
65358;SDS011;52491;45.900;6.346;2023-04-06T03:50:13;1.40;;;1.00;;
65358;SDS011;52491;45.900;6.346;2023-04-06T03:52:39;1.35;;;1.17;;
65358;SDS011;52491;45.900;6.346;2023-04-06T03:55:04;1.58;;;1.48;;
65358;SDS011;52491;45.900;6.346;2023-04-06T03:57:30;1.73;;;1.30;;
65358;SDS011;52491;45.900;6.346;2023-04-06T03:59:56;1.23;;;1.08;;
65358;SDS011;52491;45.900;6.346;2023-04-06T04:02:22;1.85;;;1.35;;
65358;SDS011;52491;45.900;6.346;2023-04-06T04:04:47;1.55;;;1.23;;
65358;SDS011;52491;45.900;6.346;2023-04-06T04:07:13;1.70;;;1.45;;
65358;SDS011;52491;45.900;6.346;2023-04-06T04:09:38;1.60;;;1.50;;
65358;SDS011;52491;45.900;6.346;2023-04-06T04:12:05;1.73;;;1.30;;
65358;SDS011;52491;45.900;6.346;2023-04-06T04:14:31;1.77;;;1.58;;
65358;SDS011;52491;45.900;6.346;2023-04-06T04:16:56;1.55;;;1.15;;
65358;SDS011;52491;45.900;6.346;2023-04-06T04:19:22;1.90;;;1.70;;
65358;SDS011;52491;45.900;6.346;2023-04-06T04:21:47;2.58;;;1.67;;
65358;SDS011;52491;45.900;6.346;2023-04-06T04:24:13;2.00;;;1.40;;
65358;SDS011;52491;45.900;6.346;2023-04-06T04:26:39;1.70;;;1.40;;
65358;SDS011;52491;45.900;6.346;2023-04-06T04:29:05;1.33;;;1.20;;
65358;SDS011;52491;45.900;6.346;2023-04-06T04:31:31;1.80;;;1.60;;
65358;SDS011;52491;45.900;6.346;2023-04-06T04:33:59;1.52;;;1.42;;
65358;SDS011;52491;45.900;6.346;2023-04-06T04:36:25;1.45;;;1.15;;
65358;SDS011;52491;45.900;6.346;2023-04-06T04:38:54;1.63;;;1.30;;
65358;SDS011;52491;45.900;6.346;2023-04-06T04:41:20;2.15;;;1.20;;
65358;SDS011;52491;45.900;6.346;2023-04-06T04:43:45;1.95;;;1.35;;
65358;SDS011;52491;45.900;6.346;2023-04-06T04:46:11;3.60;;;1.30;;
65358;SDS011;52491;45.900;6.346;2023-04-06T04:48:36;1.17;;;0.90;;
65358;SDS011;52491;45.900;6.346;2023-04-06T04:51:03;2.28;;;1.17;;
65358;SDS011;52491;45.900;6.346;2023-04-06T04:53:29;2.88;;;1.05;;
65358;SDS011;52491;45.900;6.346;2023-04-06T04:55:55;1.67;;;1.27;;
65358;SDS011;52491;45.900;6.346;2023-04-06T04:58:20;3.17;;;1.55;;
65358;SDS011;52491;45.900;6.346;2023-04-06T05:00:46;1.42;;;1.33;;
65358;SDS011;52491;45.900;6.346;2023-04-06T05:03:14;1.42;;;1.30;;
65358;SDS011;52491;45.900;6.346;2023-04-06T05:05:45;2.22;;;1.63;;
65358;SDS011;52491;45.900;6.346;2023-04-06T05:08:11;1.08;;;0.93;;
65358;SDS011;52491;45.900;6.346;2023-04-06T05:10:39;2.55;;;1.63;;
65358;SDS011;52491;45.900;6.346;2023-04-06T05:13:06;7.57;;;1.73;;
65358;SDS011;52491;45.900;6.346;2023-04-06T05:15:33;2.40;;;1.38;;
65358;SDS011;52491;45.900;6.346;2023-04-06T05:18:03;1.80;;;1.55;;
65358;SDS011;52491;45.900;6.346;2023-04-06T05:20:31;2.63;;;1.33;;
65358;SDS011;52491;45.900;6.346;2023-04-06T05:22:59;2.17;;;1.50;;
65358;SDS011;52491;45.900;6.346;2023-04-06T05:25:24;6.45;;;1.77;;
65358;SDS011;52491;45.900;6.346;2023-04-06T05:27:50;3.30;;;1.30;;
65358;SDS011;52491;45.900;6.346;2023-04-06T05:30:16;2.65;;;1.42;;
65358;SDS011;52491;45.900;6.346;2023-04-06T05:32:42;6.82;;;1.65;;
65358;SDS011;52491;45.900;6.346;2023-04-06T05:35:09;25.27;;;2.33;;
65358;SDS011;52491;45.900;6.346;2023-04-06T05:37:35;2.63;;;1.38;;
65358;SDS011;52491;45.900;6.346;2023-04-06T05:40:01;6.30;;;2.25;;
65358;SDS011;52491;45.900;6.346;2023-04-06T05:42:27;5.57;;;1.70;;
65358;SDS011;52491;45.900;6.346;2023-04-06T05:44:53;7.47;;;1.80;;
65358;SDS011;52491;45.900;6.346;2023-04-06T05:47:19;2.90;;;1.70;;
65358;SDS011;52491;45.900;6.346;2023-04-06T05:49:45;4.15;;;1.88;;
65358;SDS011;52491;45.900;6.346;2023-04-06T05:52:11;3.55;;;2.20;;
65358;SDS011;52491;45.900;6.346;2023-04-06T05:54:37;4.70;;;1.60;;
65358;SDS011;52491;45.900;6.346;2023-04-06T05:57:03;2.85;;;1.63;;
65358;SDS011;52491;45.900;6.346;2023-04-06T05:59:32;2.67;;;1.33;;
65358;SDS011;52491;45.900;6.346;2023-04-06T06:01:57;3.95;;;1.88;;
65358;SDS011;52491;45.900;6.346;2023-04-06T06:04:23;1.98;;;1.30;;
65358;SDS011;52491;45.900;6.346;2023-04-06T06:06:49;2.00;;;1.63;;
65358;SDS011;52491;45.900;6.346;2023-04-06T06:09:15;4.95;;;2.05;;
65358;SDS011;52491;45.900;6.346;2023-04-06T06:11:41;1.77;;;1.60;;
65358;SDS011;52491;45.900;6.346;2023-04-06T06:14:07;3.22;;;1.70;;
65358;SDS011;52491;45.900;6.346;2023-04-06T06:16:33;2.50;;;1.95;;
65358;SDS011;52491;45.900;6.346;2023-04-06T06:18:59;3.90;;;2.13;;
65358;SDS011;52491;45.900;6.346;2023-04-06T06:21:24;3.05;;;1.70;;
65358;SDS011;52491;45.900;6.346;2023-04-06T06:23:50;2.38;;;1.80;;
65358;SDS011;52491;45.900;6.346;2023-04-06T06:26:16;1.88;;;1.65;;
65358;SDS011;52491;45.900;6.346;2023-04-06T06:28:42;3.47;;;2.15;;
65358;SDS011;52491;45.900;6.346;2023-04-06T06:31:08;2.40;;;1.67;;
65358;SDS011;52491;45.900;6.346;2023-04-06T06:33:33;2.70;;;1.83;;
65358;SDS011;52491;45.900;6.346;2023-04-06T06:35:59;2.05;;;1.83;;
65358;SDS011;52491;45.900;6.346;2023-04-06T06:38:25;2.65;;;1.85;;
65358;SDS011;52491;45.900;6.346;2023-04-06T06:40:50;2.45;;;1.95;;
65358;SDS011;52491;45.900;6.346;2023-04-06T06:43:16;4.30;;;2.17;;
65358;SDS011;52491;45.900;6.346;2023-04-06T06:45:42;2.95;;;1.75;;
65358;SDS011;52491;45.900;6.346;2023-04-06T06:48:07;5.93;;;2.28;;
65358;SDS011;52491;45.900;6.346;2023-04-06T06:50:33;3.17;;;2.42;;
65358;SDS011;52491;45.900;6.346;2023-04-06T06:52:58;5.80;;;2.80;;
65358;SDS011;52491;45.900;6.346;2023-04-06T06:55:24;4.55;;;2.08;;
65358;SDS011;52491;45.900;6.346;2023-04-06T06:57:51;3.28;;;2.20;;
65358;SDS011;52491;45.900;6.346;2023-04-06T07:00:19;3.10;;;2.30;;
65358;SDS011;52491;45.900;6.346;2023-04-06T07:02:47;2.15;;;1.95;;
65358;SDS011;52491;45.900;6.346;2023-04-06T07:05:14;7.15;;;3.00;;
65358;SDS011;52491;45.900;6.346;2023-04-06T07:07:40;3.42;;;2.30;;
65358;SDS011;52491;45.900;6.346;2023-04-06T07:10:06;3.83;;;2.75;;
65358;SDS011;52491;45.900;6.346;2023-04-06T07:12:32;3.28;;;2.00;;
65358;SDS011;52491;45.900;6.346;2023-04-06T07:14:58;5.35;;;2.75;;
65358;SDS011;52491;45.900;6.346;2023-04-06T07:17:24;4.72;;;2.63;;
65358;SDS011;52491;45.900;6.346;2023-04-06T07:19:49;3.38;;;2.40;;
65358;SDS011;52491;45.900;6.346;2023-04-06T07:22:15;5.05;;;2.20;;
65358;SDS011;52491;45.900;6.346;2023-04-06T07:24:41;6.10;;;2.55;;
65358;SDS011;52491;45.900;6.346;2023-04-06T07:27:06;3.08;;;1.85;;
65358;SDS011;52491;45.900;6.346;2023-04-06T07:29:32;3.42;;;2.88;;
65358;SDS011;52491;45.900;6.346;2023-04-06T07:31:57;3.30;;;2.67;;
65358;SDS011;52491;45.900;6.346;2023-04-06T07:34:23;3.08;;;2.25;;
65358;SDS011;52491;45.900;6.346;2023-04-06T07:36:49;2.40;;;1.92;;
65358;SDS011;52491;45.900;6.346;2023-04-06T07:39:14;2.47;;;2.28;;
65358;SDS011;52491;45.900;6.346;2023-04-06T07:41:40;7.30;;;2.42;;
65358;SDS011;52491;45.900;6.346;2023-04-06T07:44:06;2.58;;;1.77;;
65358;SDS011;52491;45.900;6.346;2023-04-06T07:46:32;3.90;;;2.17;;
65358;SDS011;52491;45.900;6.346;2023-04-06T07:48:59;2.40;;;2.10;;
65358;SDS011;52491;45.900;6.346;2023-04-06T07:51:25;3.40;;;2.25;;
65358;SDS011;52491;45.900;6.346;2023-04-06T07:53:51;3.05;;;2.08;;
65358;SDS011;52491;45.900;6.346;2023-04-06T07:56:17;3.05;;;2.30;;
65358;SDS011;52491;45.900;6.346;2023-04-06T07:58:43;3.08;;;2.45;;
65358;SDS011;52491;45.900;6.346;2023-04-06T08:01:09;3.58;;;2.45;;
65358;SDS011;52491;45.900;6.346;2023-04-06T08:03:34;2.15;;;1.77;;
65358;SDS011;52491;45.900;6.346;2023-04-06T08:06:01;2.75;;;1.80;;
65358;SDS011;52491;45.900;6.346;2023-04-06T08:08:27;4.72;;;2.42;;
65358;SDS011;52491;45.900;6.346;2023-04-06T08:10:53;3.08;;;1.75;;
65358;SDS011;52491;45.900;6.346;2023-04-06T08:13:19;2.33;;;2.10;;
65358;SDS011;52491;45.900;6.346;2023-04-06T08:15:45;2.17;;;1.98;;
65358;SDS011;52491;45.900;6.346;2023-04-06T08:18:11;2.30;;;1.63;;
65358;SDS011;52491;45.900;6.346;2023-04-06T08:20:37;2.80;;;2.13;;
65358;SDS011;52491;45.900;6.346;2023-04-06T08:23:02;4.60;;;2.05;;
65358;SDS011;52491;45.900;6.346;2023-04-06T08:25:28;4.25;;;2.25;;
65358;SDS011;52491;45.900;6.346;2023-04-06T08:27:54;3.17;;;2.00;;
65358;SDS011;52491;45.900;6.346;2023-04-06T08:30:19;2.38;;;2.17;;
65358;SDS011;52491;45.900;6.346;2023-04-06T08:32:45;3.10;;;2.08;;
65358;SDS011;52491;45.900;6.346;2023-04-06T08:35:11;3.55;;;1.88;;
65358;SDS011;52491;45.900;6.346;2023-04-06T08:37:37;2.38;;;1.73;;
65358;SDS011;52491;45.900;6.346;2023-04-06T08:40:03;2.15;;;1.60;;
65358;SDS011;52491;45.900;6.346;2023-04-06T08:42:31;2.20;;;1.58;;
65358;SDS011;52491;45.900;6.346;2023-04-06T08:44:58;1.90;;;1.65;;
65358;SDS011;52491;45.900;6.346;2023-04-06T08:47:25;2.05;;;1.85;;
65358;SDS011;52491;45.900;6.346;2023-04-06T08:49:51;1.75;;;1.63;;
65358;SDS011;52491;45.900;6.346;2023-04-06T08:52:18;3.17;;;1.80;;
65358;SDS011;52491;45.900;6.346;2023-04-06T08:54:45;2.33;;;1.77;;
65358;SDS011;52491;45.900;6.346;2023-04-06T08:57:10;1.65;;;1.30;;
65358;SDS011;52491;45.900;6.346;2023-04-06T08:59:37;1.63;;;1.40;;
65358;SDS011;52491;45.900;6.346;2023-04-06T09:02:04;3.38;;;1.60;;
65358;SDS011;52491;45.900;6.346;2023-04-06T09:04:32;2.70;;;1.58;;
65358;SDS011;52491;45.900;6.346;2023-04-06T09:07:00;1.88;;;1.60;;
65358;SDS011;52491;45.900;6.346;2023-04-06T09:09:25;4.80;;;1.55;;
65358;SDS011;52491;45.900;6.346;2023-04-06T09:11:51;2.38;;;1.70;;
65358;SDS011;52491;45.900;6.346;2023-04-06T09:14:32;5.53;;;1.77;;
65358;SDS011;52491;45.900;6.346;2023-04-06T09:17:02;2.22;;;1.48;;
65358;SDS011;52491;45.900;6.346;2023-04-06T09:19:28;2.20;;;1.40;;
65358;SDS011;52491;45.900;6.346;2023-04-06T09:22:03;2.60;;;1.60;;
65358;SDS011;52491;45.900;6.346;2023-04-06T09:24:51;2.10;;;1.63;;
65358;SDS011;52491;45.900;6.346;2023-04-06T09:27:16;1.20;;;1.10;;
65358;SDS011;52491;45.900;6.346;2023-04-06T09:29:43;1.40;;;1.27;;
65358;SDS011;52491;45.900;6.346;2023-04-06T09:32:10;1.95;;;1.45;;
65358;SDS011;52491;45.900;6.346;2023-04-06T09:34:39;2.53;;;1.70;;
65358;SDS011;52491;45.900;6.346;2023-04-06T09:37:14;1.33;;;1.20;;
65358;SDS011;52491;45.900;6.346;2023-04-06T09:39:44;2.13;;;1.52;;
65358;SDS011;52491;45.900;6.346;2023-04-06T09:42:31;1.23;;;1.02;;
65358;SDS011;52491;45.900;6.346;2023-04-06T09:44:56;2.25;;;2.00;;
65358;SDS011;52491;45.900;6.346;2023-04-06T09:47:22;2.40;;;1.58;;
65358;SDS011;52491;45.900;6.346;2023-04-06T09:49:48;2.10;;;1.23;;
65358;SDS011;52491;45.900;6.346;2023-04-06T09:52:18;2.97;;;1.73;;
65358;SDS011;52491;45.900;6.346;2023-04-06T09:54:45;1.23;;;1.13;;
65358;SDS011;52491;45.900;6.346;2023-04-06T10:02:39;3.83;;;1.77;;
65358;SDS011;52491;45.900;6.346;2023-04-06T10:08:27;0.90;;;0.90;;
65358;SDS011;52491;45.900;6.346;2023-04-06T10:10:56;1.88;;;1.45;;
65358;SDS011;52491;45.900;6.346;2023-04-06T10:13:22;1.63;;;1.48;;
65358;SDS011;52491;45.900;6.346;2023-04-06T10:15:50;2.47;;;1.60;;
65358;SDS011;52491;45.900;6.346;2023-04-06T10:18:17;1.50;;;1.05;;
65358;SDS011;52491;45.900;6.346;2023-04-06T10:23:36;2.50;;;1.45;;
65358;SDS011;52491;45.900;6.346;2023-04-06T10:26:11;1.42;;;1.08;;
65358;SDS011;52491;45.900;6.346;2023-04-06T10:28:40;1.88;;;1.38;;
65358;SDS011;52491;45.900;6.346;2023-04-06T10:31:07;1.40;;;1.08;;
65358;SDS011;52491;45.900;6.346;2023-04-06T10:33:33;1.15;;;0.90;;
65358;SDS011;52491;45.900;6.346;2023-04-06T10:38:41;1.70;;;1.40;;
65358;SDS011;52491;45.900;6.346;2023-04-06T10:41:11;1.33;;;1.23;;
65358;SDS011;52491;45.900;6.346;2023-04-06T10:43:38;2.47;;;1.60;;
65358;SDS011;52491;45.900;6.346;2023-04-06T10:46:05;1.40;;;1.30;;
65358;SDS011;52491;45.900;6.346;2023-04-06T10:48:41;1.27;;;1.17;;
65358;SDS011;52491;45.900;6.346;2023-04-06T10:51:12;1.95;;;1.35;;
65358;SDS011;52491;45.900;6.346;2023-04-06T10:53:41;1.70;;;1.35;;
65358;SDS011;52491;45.900;6.346;2023-04-06T10:56:09;1.80;;;1.33;;
65358;SDS011;52491;45.900;6.346;2023-04-06T10:58:43;1.58;;;1.27;;
65358;SDS011;52491;45.900;6.346;2023-04-06T11:01:10;4.15;;;1.08;;
65358;SDS011;52491;45.900;6.346;2023-04-06T11:03:46;2.55;;;1.65;;
65358;SDS011;52491;45.900;6.346;2023-04-06T11:06:23;1.90;;;1.10;;
65358;SDS011;52491;45.900;6.346;2023-04-06T11:08:56;4.97;;;3.38;;
65358;SDS011;52491;45.900;6.346;2023-04-06T11:11:24;6.35;;;5.18;;
65358;SDS011;52491;45.900;6.346;2023-04-06T11:13:52;8.23;;;5.97;;
65358;SDS011;52491;45.900;6.346;2023-04-06T11:16:23;11.27;;;6.78;;
65358;SDS011;52491;45.900;6.346;2023-04-06T11:21:45;9.82;;;6.78;;
65358;SDS011;52491;45.900;6.346;2023-04-06T11:24:21;11.30;;;7.65;;
65358;SDS011;52491;45.900;6.346;2023-04-06T11:26:56;12.85;;;8.38;;
65358;SDS011;52491;45.900;6.346;2023-04-06T11:29:29;13.10;;;7.97;;
65358;SDS011;52491;45.900;6.346;2023-04-06T11:32:05;16.90;;;9.05;;
65358;SDS011;52491;45.900;6.346;2023-04-06T11:34:36;13.32;;;8.48;;
65358;SDS011;52491;45.900;6.346;2023-04-06T11:37:09;17.20;;;9.63;;
65358;SDS011;52491;45.900;6.346;2023-04-06T11:39:39;17.55;;;9.27;;
65358;SDS011;52491;45.900;6.346;2023-04-06T11:42:27;12.13;;;9.20;;
65358;SDS011;52491;45.900;6.346;2023-04-06T11:44:55;12.27;;;8.95;;
65358;SDS011;52491;45.900;6.346;2023-04-06T11:47:35;11.40;;;8.18;;
65358;SDS011;52491;45.900;6.346;2023-04-06T11:50:09;14.48;;;9.32;;
65358;SDS011;52491;45.900;6.346;2023-04-06T11:52:38;15.18;;;10.45;;
65358;SDS011;52491;45.900;6.346;2023-04-06T11:55:11;17.02;;;9.13;;
65358;SDS011;52491;45.900;6.346;2023-04-06T11:57:40;13.15;;;9.07;;
65358;SDS011;52491;45.900;6.346;2023-04-06T12:00:08;15.70;;;8.20;;
65358;SDS011;52491;45.900;6.346;2023-04-06T12:02:39;16.00;;;8.98;;
65358;SDS011;52491;45.900;6.346;2023-04-06T12:05:10;15.40;;;8.53;;
65358;SDS011;52491;45.900;6.346;2023-04-06T12:07:36;12.93;;;7.80;;
65358;SDS011;52491;45.900;6.346;2023-04-06T12:10:02;12.40;;;7.03;;
65358;SDS011;52491;45.900;6.346;2023-04-06T12:12:28;12.90;;;7.15;;
65358;SDS011;52491;45.900;6.346;2023-04-06T12:14:55;10.13;;;6.28;;
65358;SDS011;52491;45.900;6.346;2023-04-06T12:17:21;10.57;;;5.93;;
65358;SDS011;52491;45.900;6.346;2023-04-06T12:19:46;9.57;;;5.75;;
65358;SDS011;52491;45.900;6.346;2023-04-06T12:22:12;10.23;;;6.47;;
65358;SDS011;52491;45.900;6.346;2023-04-06T12:24:38;12.43;;;5.88;;
65358;SDS011;52491;45.900;6.346;2023-04-06T12:27:03;9.50;;;5.22;;
65358;SDS011;52491;45.900;6.346;2023-04-06T12:29:29;12.45;;;5.50;;
65358;SDS011;52491;45.900;6.346;2023-04-06T12:31:55;8.55;;;5.90;;
65358;SDS011;52491;45.900;6.346;2023-04-06T12:34:21;11.05;;;7.00;;
65358;SDS011;52491;45.900;6.346;2023-04-06T12:36:46;8.30;;;4.93;;
65358;SDS011;52491;45.900;6.346;2023-04-06T12:39:12;4.63;;;3.50;;
65358;SDS011;52491;45.900;6.346;2023-04-06T12:41:38;9.63;;;4.70;;
65358;SDS011;52491;45.900;6.346;2023-04-06T12:44:06;4.63;;;3.83;;
65358;SDS011;52491;45.900;6.346;2023-04-06T12:46:32;7.35;;;3.67;;
65358;SDS011;52491;45.900;6.346;2023-04-06T12:48:57;5.93;;;3.78;;
65358;SDS011;52491;45.900;6.346;2023-04-06T12:51:24;6.15;;;3.75;;
65358;SDS011;52491;45.900;6.346;2023-04-06T12:53:52;7.05;;;3.63;;
65358;SDS011;52491;45.900;6.346;2023-04-06T12:56:18;3.95;;;2.85;;
65358;SDS011;52491;45.900;6.346;2023-04-06T12:58:44;4.03;;;3.08;;
65358;SDS011;52491;45.900;6.346;2023-04-06T13:01:10;4.80;;;2.90;;
65358;SDS011;52491;45.900;6.346;2023-04-06T13:03:42;3.88;;;3.20;;
65358;SDS011;52491;45.900;6.346;2023-04-06T13:06:08;5.68;;;3.03;;
65358;SDS011;52491;45.900;6.346;2023-04-06T13:08:34;3.90;;;2.90;;
65358;SDS011;52491;45.900;6.346;2023-04-06T13:11:03;4.10;;;2.13;;
65358;SDS011;52491;45.900;6.346;2023-04-06T13:13:30;3.08;;;2.08;;
65358;SDS011;52491;45.900;6.346;2023-04-06T13:16:06;3.40;;;2.88;;
65358;SDS011;52491;45.900;6.346;2023-04-06T13:18:33;8.77;;;1.92;;
65358;SDS011;52491;45.900;6.346;2023-04-06T13:20:59;3.13;;;2.25;;
65358;SDS011;52491;45.900;6.346;2023-04-06T13:23:25;3.58;;;1.75;;
65358;SDS011;52491;45.900;6.346;2023-04-06T13:26:01;5.10;;;2.50;;
65358;SDS011;52491;45.900;6.346;2023-04-06T13:28:28;3.05;;;1.85;;
65358;SDS011;52491;45.900;6.346;2023-04-06T13:30:55;5.72;;;1.85;;
65358;SDS011;52491;45.900;6.346;2023-04-06T13:33:23;1.42;;;1.15;;
65358;SDS011;52491;45.900;6.346;2023-04-06T13:35:48;2.35;;;1.60;;
65358;SDS011;52491;45.900;6.346;2023-04-06T13:38:14;2.15;;;1.75;;
65358;SDS011;52491;45.900;6.346;2023-04-06T13:40:40;2.05;;;1.63;;
65358;SDS011;52491;45.900;6.346;2023-04-06T13:43:07;4.90;;;1.58;;
65358;SDS011;52491;45.900;6.346;2023-04-06T13:45:32;3.75;;;1.60;;
65358;SDS011;52491;45.900;6.346;2023-04-06T13:47:58;1.30;;;1.20;;
65358;SDS011;52491;45.900;6.346;2023-04-06T13:50:27;1.38;;;1.27;;
65358;SDS011;52491;45.900;6.346;2023-04-06T13:52:53;3.35;;;1.70;;
65358;SDS011;52491;45.900;6.346;2023-04-06T13:55:19;3.20;;;1.58;;
65358;SDS011;52491;45.900;6.346;2023-04-06T13:57:45;2.75;;;1.67;;
65358;SDS011;52491;45.900;6.346;2023-04-06T14:00:11;3.45;;;2.28;;
65358;SDS011;52491;45.900;6.346;2023-04-06T14:02:38;2.47;;;1.73;;
65358;SDS011;52491;45.900;6.346;2023-04-06T14:05:04;8.43;;;2.03;;
65358;SDS011;52491;45.900;6.346;2023-04-06T14:07:30;1.73;;;1.35;;
65358;SDS011;52491;45.900;6.346;2023-04-06T14:09:56;3.92;;;1.90;;
65358;SDS011;52491;45.900;6.346;2023-04-06T14:12:21;1.38;;;1.02;;
65358;SDS011;52491;45.900;6.346;2023-04-06T14:14:47;1.60;;;1.25;;
65358;SDS011;52491;45.900;6.346;2023-04-06T14:17:13;2.50;;;1.88;;
65358;SDS011;52491;45.900;6.346;2023-04-06T14:19:38;4.60;;;1.30;;
65358;SDS011;52491;45.900;6.346;2023-04-06T14:22:05;2.05;;;1.33;;
65358;SDS011;52491;45.900;6.346;2023-04-06T14:24:30;1.80;;;1.10;;
65358;SDS011;52491;45.900;6.346;2023-04-06T14:26:56;1.20;;;1.10;;
65358;SDS011;52491;45.900;6.346;2023-04-06T14:29:22;1.80;;;1.20;;
65358;SDS011;52491;45.900;6.346;2023-04-06T14:31:48;2.90;;;1.08;;
65358;SDS011;52491;45.900;6.346;2023-04-06T14:34:14;3.67;;;1.27;;
65358;SDS011;52491;45.900;6.346;2023-04-06T14:36:41;1.42;;;1.10;;
65358;SDS011;52491;45.900;6.346;2023-04-06T14:39:07;1.65;;;0.98;;
65358;SDS011;52491;45.900;6.346;2023-04-06T14:41:33;1.92;;;0.90;;
65358;SDS011;52491;45.900;6.346;2023-04-06T14:44:00;2.15;;;1.13;;
65358;SDS011;52491;45.900;6.346;2023-04-06T14:46:26;1.17;;;1.05;;
65358;SDS011;52491;45.900;6.346;2023-04-06T14:48:53;4.53;;;1.50;;
65358;SDS011;52491;45.900;6.346;2023-04-06T14:51:20;4.00;;;1.02;;
65358;SDS011;52491;45.900;6.346;2023-04-06T14:53:45;2.75;;;1.27;;
65358;SDS011;52491;45.900;6.346;2023-04-06T14:56:11;5.18;;;1.23;;
65358;SDS011;52491;45.900;6.346;2023-04-06T14:58:36;1.42;;;0.80;;
65358;SDS011;52491;45.900;6.346;2023-04-06T15:01:02;1.80;;;1.10;;